Time;durP1;ratioP1;P1;durP2;ratioP2;P2;SDS_P1;SDS_P2;PMS_P1;PMS_P2;Temp;Humidity;BMP_temperature;BMP_pressure;BME280_temperature;BME280_humidity;BME280_pressure;Samples;Min_cycle;Max_cycle;Signal;HPM_P1;HPM_P2
2023/09/24 00:01:35;;;;;;;9.03;8.87;;;;;;;;;;4127923;28;20048;-63
2023/09/24 00:03:37;;;;;;;9.23;8.87;;;;;;;;;;4132109;28;20293;-62
2023/09/24 00:05:42;;;;;;;7.85;7.60;;;;;;;;;;4131910;28;20344;-63
2023/09/24 00:07:44;;;;;;;8.48;8.18;;;;;;;;;;4132326;28;20566;-62
2023/09/24 00:09:46;;;;;;;7.85;7.32;;;;;;;;;;4131980;28;20039;-63
2023/09/24 00:11:48;;;;;;;7.60;7.50;;;;;;;;;;4132054;28;20060;-63
2023/09/24 00:13:49;;;;;;;7.80;7.70;;;;;;;;;;4132012;28;20070;-63
2023/09/24 00:15:51;;;;;;;7.57;7.32;;;;;;;;;;4132103;28;20065;-63
2023/09/24 00:17:53;;;;;;;7.53;6.80;;;;;;;;;;4117797;28;20046;-63
2023/09/24 00:19:55;;;;;;;6.70;6.60;;;;;;;;;;4115581;28;20422;-63
2023/09/24 00:21:57;;;;;;;8.57;7.97;;;;;;;;;;4125849;28;20117;-63
2023/09/24 00:23:59;;;;;;;8.75;8.00;;;;;;;;;;4126671;28;20046;-63
2023/09/24 00:26:01;;;;;;;9.15;8.70;;;;;;;;;;4120946;28;20073;-63
2023/09/24 00:28:03;;;;;;;9.63;9.33;;;;;;;;;;4131853;28;20069;-63
2023/09/24 00:30:05;;;;;;;9.93;9.60;;;;;;;;;;4118926;28;20078;-62
2023/09/24 00:32:07;;;;;;;9.85;9.32;;;;;;;;;;4124599;28;20046;-63
2023/09/24 00:34:09;;;;;;;10.73;10.45;;;;;;;;;;4131979;28;20057;-63
2023/09/24 00:36:11;;;;;;;10.43;10.15;;;;;;;;;;4131753;28;20418;-63
2023/09/24 00:38:13;;;;;;;9.48;9.30;;;;;;;;;;4131757;28;20070;-63
2023/09/24 00:40:15;;;;;;;11.87;11.30;;;;;;;;;;4131514;28;20109;-63
2023/09/24 00:42:16;;;;;;;11.23;10.80;;;;;;;;;;4131760;28;20045;-63
2023/09/24 00:44:18;;;;;;;11.30;10.83;;;;;;;;;;4131609;28;20046;-63
2023/09/24 00:46:21;;;;;;;8.32;8.07;;;;;;;;;;4131530;28;20050;-63
2023/09/24 00:48:27;;;;;;;9.98;9.43;;;;;;;;;;4131666;28;20122;-63
2023/09/24 00:50:33;;;;;;;10.38;9.88;;;;;;;;;;4131495;28;20134;-63
2023/09/24 00:52:37;;;;;;;9.63;9.43;;;;;;;;;;4131632;28;20133;-63
2023/09/24 00:54:39;;;;;;;9.90;9.38;;;;;;;;;;4130775;28;20035;-63
2023/09/24 00:56:41;;;;;;;9.40;9.07;;;;;;;;;;4131569;28;20046;-62
2023/09/24 00:58:46;;;;;;;;;;;;;;;;;;4131276;28;20038;-62
2023/09/24 01:00:48;;;;;;;7.90;7.70;;;;;;;;;;4131712;28;20393;-62
2023/09/24 01:02:50;;;;;;;7.73;7.30;;;;;;;;;;4131535;28;20057;-63
2023/09/24 01:04:53;;;;;;;8.13;7.72;;;;;;;;;;4131183;28;20046;-63
2023/09/24 01:06:55;;;;;;;;;;;;;;;;;;4131782;28;20042;-62
2023/09/24 01:08:56;;;;;;;7.85;7.75;;;;;;;;;;4131625;28;19964;-62
2023/09/24 01:10:59;;;;;;;8.40;8.25;;;;;;;;;;4131483;28;20081;-63
2023/09/24 01:13:00;;;;;;;7.78;7.60;;;;;;;;;;4131462;28;20042;-63
2023/09/24 01:15:02;;;;;;;8.13;8.00;;;;;;;;;;4131235;28;20406;-63
2023/09/24 01:17:04;;;;;;;6.97;6.78;;;;;;;;;;4131347;28;20044;-64
2023/09/24 01:19:06;;;;;;;7.28;7.18;;;;;;;;;;4131356;28;20117;-63
2023/09/24 01:21:12;;;;;;;7.20;7.10;;;;;;;;;;4131424;28;20121;-63
2023/09/24 01:23:14;;;;;;;6.40;6.30;;;;;;;;;;4131408;28;20039;-63
2023/09/24 01:25:19;;;;;;;7.70;7.47;;;;;;;;;;4117232;28;20522;-63
2023/09/24 01:27:23;;;;;;;8.65;8.45;;;;;;;;;;4115314;28;20101;-63
2023/09/24 01:29:26;;;;;;;8.30;8.10;;;;;;;;;;4127134;28;20058;-63
2023/09/24 01:31:30;;;;;;;8.18;7.97;;;;;;;;;;4131247;28;20078;-63
2023/09/24 01:33:32;;;;;;;7.63;7.53;;;;;;;;;;4131390;28;20154;-63
2023/09/24 01:35:35;;;;;;;6.43;6.32;;;;;;;;;;4118162;28;20138;-62
2023/09/24 01:37:38;;;;;;;7.05;6.78;;;;;;;;;;4134420;28;20495;-63
2023/09/24 01:39:39;;;;;;;7.68;7.57;;;;;;;;;;4134135;28;20125;-63
2023/09/24 01:41:41;;;;;;;7.55;7.45;;;;;;;;;;4134237;28;20054;-63
2023/09/24 01:43:43;;;;;;;7.90;7.80;;;;;;;;;;4133717;28;20169;-62
2023/09/24 01:45:45;;;;;;;6.55;6.40;;;;;;;;;;4134378;28;20049;-63
2023/09/24 01:47:49;;;;;;;6.85;6.75;;;;;;;;;;4126368;28;20049;-63
2023/09/24 01:49:52;;;;;;;6.20;6.10;;;;;;;;;;4134148;28;20049;-62
2023/09/24 01:51:53;;;;;;;7.57;7.37;;;;;;;;;;4134389;28;20042;-63
2023/09/24 01:53:57;;;;;;;8.57;8.27;;;;;;;;;;4124139;28;20089;-63
2023/09/24 01:56:04;;;;;;;8.38;8.27;;;;;;;;;;4118185;28;20043;-63
2023/09/24 01:58:06;;;;;;;8.13;7.93;;;;;;;;;;4118068;28;20085;-63
2023/09/24 02:00:26;;;;;;;8.55;8.32;;;;;;;;;;4118001;28;20039;-63
2023/09/24 02:02:33;;;;;;;8.02;7.50;;;;;;;;;;4118161;28;20043;-62
2023/09/24 02:04:37;;;;;;;9.30;8.88;;;;;;;;;;4117703;28;20442;-63
2023/09/24 02:06:38;;;;;;;8.52;8.32;;;;;;;;;;4118063;28;20054;-63
2023/09/24 02:08:40;;;;;;;7.70;7.60;;;;;;;;;;4117906;28;20391;-63
2023/09/24 02:10:42;;;;;;;7.65;7.55;;;;;;;;;;4117878;28;20053;-63
2023/09/24 02:12:45;;;;;;;6.82;6.72;;;;;;;;;;4127663;28;20048;-63
2023/09/24 02:14:47;;;;;;;5.80;5.70;;;;;;;;;;4133988;28;20035;-63
2023/09/24 02:16:50;;;;;;;4.82;4.68;;;;;;;;;;4133947;28;20031;-63
2023/09/24 02:18:52;;;;;;;4.40;4.40;;;;;;;;;;4133818;28;20093;-63
2023/09/24 02:20:54;;;;;;;5.33;5.23;;;;;;;;;;4133902;28;20054;-63
2023/09/24 02:22:57;;;;;;;6.28;5.97;;;;;;;;;;4118011;28;20298;-63
2023/09/24 02:24:59;;;;;;;7.13;6.88;;;;;;;;;;4129136;28;20131;-63
2023/09/24 02:27:02;;;;;;;6.73;6.53;;;;;;;;;;4133588;28;20387;-63
2023/09/24 02:29:03;;;;;;;7.50;7.40;;;;;;;;;;4128280;28;20479;-63
2023/09/24 02:31:05;;;;;;;7.80;7.60;;;;;;;;;;4117583;28;20082;-63
2023/09/24 02:33:07;;;;;;;9.32;8.70;;;;;;;;;;4117728;28;20503;-63
2023/09/24 02:35:13;;;;;;;8.10;7.90;;;;;;;;;;4117578;28;20030;-62
2023/09/24 02:37:14;;;;;;;7.63;7.43;;;;;;;;;;4132013;28;20045;-63
2023/09/24 02:39:16;;;;;;;7.73;7.63;;;;;;;;;;4133398;28;20054;-62
2023/09/24 02:41:18;;;;;;;6.28;6.07;;;;;;;;;;4133602;28;20101;-63
2023/09/24 02:43:19;;;;;;;6.78;6.28;;;;;;;;;;4133144;28;20093;-62
2023/09/24 02:45:21;;;;;;;5.88;5.72;;;;;;;;;;4133397;28;20042;-63
2023/09/24 02:47:22;;;;;;;5.35;5.15;;;;;;;;;;4133261;28;20050;-63
2023/09/24 02:49:24;;;;;;;5.55;5.20;;;;;;;;;;4133429;28;20506;-63
2023/09/24 02:51:28;;;;;;;7.20;6.80;;;;;;;;;;4133299;28;20081;-63
2023/09/24 02:53:30;;;;;;;5.63;5.50;;;;;;;;;;4133233;28;20072;-63
2023/09/24 02:55:32;;;;;;;7.13;6.93;;;;;;;;;;4117273;28;20659;-63
2023/09/24 02:57:33;;;;;;;7.75;7.65;;;;;;;;;;4117353;28;20302;-63
2023/09/24 02:59:35;;;;;;;7.30;7.13;;;;;;;;;;4117397;28;20582;-63
2023/09/24 03:01:37;;;;;;;8.07;7.65;;;;;;;;;;4119170;28;20293;-63
2023/09/24 03:03:38;;;;;;;7.38;7.18;;;;;;;;;;4133177;28;20067;-62
2023/09/24 03:05:40;;;;;;;7.88;7.63;;;;;;;;;;4133033;28;20058;-63
2023/09/24 03:07:44;;;;;;;6.53;6.43;;;;;;;;;;4133031;28;20053;-63
2023/09/24 03:09:46;;;;;;;6.43;6.20;;;;;;;;;;4132977;28;20121;-63
2023/09/24 03:11:47;;;;;;;6.53;6.43;;;;;;;;;;4133144;28;20057;-63
2023/09/24 03:13:49;;;;;;;6.95;6.85;;;;;;;;;;4132993;28;20538;-63
2023/09/24 03:15:51;;;;;;;7.20;6.72;;;;;;;;;;4132972;28;20756;-63
2023/09/24 03:17:53;;;;;;;4.70;4.60;;;;;;;;;;4127611;28;20114;-63
2023/09/24 03:19:55;;;;;;;4.28;4.10;;;;;;;;;;4116747;28;20051;-63
2023/09/24 03:21:56;;;;;;;5.77;4.73;;;;;;;;;;4132803;28;20077;-63
2023/09/24 03:24:00;;;;;;;4.00;3.70;;;;;;;;;;4126623;28;20065;-63
2023/09/24 03:26:03;;;;;;;4.20;4.10;;;;;;;;;;4124162;28;20297;-63
2023/09/24 03:28:05;;;;;;;3.97;3.67;;;;;;;;;;4132621;28;20573;-63
2023/09/24 03:30:10;;;;;;;4.30;4.20;;;;;;;;;;4132863;28;20050;-62
2023/09/24 03:32:14;;;;;;;4.43;3.92;;;;;;;;;;4132711;28;20528;-63
2023/09/24 03:34:15;;;;;;;3.55;3.38;;;;;;;;;;4132642;28;20047;-63
2023/09/24 03:36:17;;;;;;;3.00;2.87;;;;;;;;;;4132983;28;20099;-63
2023/09/24 03:38:19;;;;;;;3.83;3.83;;;;;;;;;;4131495;28;20053;-63
2023/09/24 03:40:21;;;;;;;3.25;3.25;;;;;;;;;;4132371;28;20042;-63
2023/09/24 03:42:23;;;;;;;3.50;3.50;;;;;;;;;;4132787;28;20042;-63
2023/09/24 03:44:24;;;;;;;3.57;3.57;;;;;;;;;;4132600;28;20495;-63
2023/09/24 03:46:27;;;;;;;3.38;3.20;;;;;;;;;;4132443;28;20045;-63
2023/09/24 03:48:29;;;;;;;3.90;3.65;;;;;;;;;;4132642;28;20045;-63
2023/09/24 03:50:31;;;;;;;3.03;2.92;;;;;;;;;;4132489;28;20054;-62
2023/09/24 03:52:32;;;;;;;3.33;3.13;;;;;;;;;;4132477;28;20395;-63
2023/09/24 03:54:34;;;;;;;5.93;5.43;;;;;;;;;;4120820;28;20039;-63
2023/09/24 03:56:36;;;;;;;4.13;3.90;;;;;;;;;;4116537;28;20130;-63
2023/09/24 03:58:37;;;;;;;4.88;4.53;;;;;;;;;;4116341;28;20050;-63
2023/09/24 04:00:39;;;;;;;4.67;4.57;;;;;;;;;;4116260;28;20051;-62
2023/09/24 04:02:43;;;;;;;4.33;4.13;;;;;;;;;;4116242;28;20447;-63
2023/09/24 04:04:44;;;;;;;4.00;3.85;;;;;;;;;;4115860;28;20730;-63
2023/09/24 04:06:46;;;;;;;5.07;4.88;;;;;;;;;;4124683;28;20053;-62
2023/09/24 04:08:48;;;;;;;5.18;4.93;;;;;;;;;;4132388;28;20540;-62
2023/09/24 04:10:50;;;;;;;5.07;4.30;;;;;;;;;;4132206;28;20048;-63
2023/09/24 04:12:52;;;;;;;4.20;4.10;;;;;;;;;;4132245;28;20053;-62
2023/09/24 04:14:54;;;;;;;4.55;4.35;;;;;;;;;;4120607;28;20087;-63
2023/09/24 04:16:56;;;;;;;3.55;3.40;;;;;;;;;;4122246;28;20047;-62
2023/09/24 04:18:58;;;;;;;4.35;4.25;;;;;;;;;;4132065;28;20074;-63
2023/09/24 04:21:00;;;;;;;4.03;3.83;;;;;;;;;;4131978;28;20446;-63
2023/09/24 04:23:02;;;;;;;3.63;3.47;;;;;;;;;;4132032;28;20344;-63
2023/09/24 04:25:04;;;;;;;3.83;3.83;;;;;;;;;;4117329;28;20054;-63
2023/09/24 04:27:05;;;;;;;3.63;3.35;;;;;;;;;;4115814;28;20388;-63
2023/09/24 04:29:07;;;;;;;4.05;3.78;;;;;;;;;;4115841;28;20482;-63
2023/09/24 04:31:09;;;;;;;3.97;3.97;;;;;;;;;;4115855;28;20070;-62
2023/09/24 04:33:10;;;;;;;3.17;3.17;;;;;;;;;;4116012;28;20053;-63
2023/09/24 04:35:12;;;;;;;3.55;3.38;;;;;;;;;;4115710;28;20821;-63
2023/09/24 04:37:14;;;;;;;3.03;2.95;;;;;;;;;;4128717;28;20047;-62
2023/09/24 04:39:16;;;;;;;3.40;3.10;;;;;;;;;;4131559;28;20042;-62
2023/09/24 04:41:18;;;;;;;2.60;2.60;;;;;;;;;;4131848;28;20073;-63
2023/09/24 04:43:20;;;;;;;2.28;2.17;;;;;;;;;;4131683;28;20121;-62
2023/09/24 04:45:21;;;;;;;2.67;2.67;;;;;;;;;;4131392;28;20049;-62
2023/09/24 04:47:23;;;;;;;1.80;1.80;;;;;;;;;;4131517;28;20089;-63
2023/09/24 04:49:25;;;;;;;2.42;2.25;;;;;;;;;;4131722;28;20050;-63
2023/09/24 04:51:27;;;;;;;6.90;2.85;;;;;;;;;;4131523;28;20077;-62
2023/09/24 04:53:30;;;;;;;3.85;2.38;;;;;;;;;;4131714;28;20533;-63
2023/09/24 04:55:32;;;;;;;2.17;2.17;;;;;;;;;;4130921;28;20042;-63
2023/09/24 04:57:34;;;;;;;2.13;2.03;;;;;;;;;;4131751;28;20053;-62
2023/09/24 04:59:36;;;;;;;1.97;1.87;;;;;;;;;;4131576;28;20066;-63
2023/09/24 05:01:37;;;;;;;3.00;2.63;;;;;;;;;;4131688;28;20074;-61
2023/09/24 05:03:39;;;;;;;1.60;1.60;;;;;;;;;;4131337;28;20400;-63
2023/09/24 05:05:44;;;;;;;1.83;1.83;;;;;;;;;;4131213;28;20867;-62
2023/09/24 05:07:47;;;;;;;1.75;1.75;;;;;;;;;;4131549;28;20193;-62
2023/09/24 05:09:50;;;;;;;1.73;1.52;;;;;;;;;;4130688;28;20050;-62
2023/09/24 05:11:52;;;;;;;1.52;1.52;;;;;;;;;;4115958;28;20077;-62
2023/09/24 05:13:54;;;;;;;2.20;2.08;;;;;;;;;;4127169;28;20076;-62
2023/09/24 05:15:59;;;;;;;1.27;1.27;;;;;;;;;;4131373;28;20046;-62
2023/09/24 05:18:01;;;;;;;1.40;1.30;;;;;;;;;;4131429;28;20042;-62
2023/09/24 05:20:04;;;;;;;1.70;1.60;;;;;;;;;;4131478;28;20073;-62
2023/09/24 05:22:07;;;;;;;1.38;1.38;;;;;;;;;;4131521;28;20589;-63
2023/09/24 05:24:09;;;;;;;1.55;1.50;;;;;;;;;;4128539;28;20097;-62
2023/09/24 05:26:12;;;;;;;1.83;1.75;;;;;;;;;;4118795;28;20038;-62
2023/09/24 05:28:14;;;;;;;1.55;1.55;;;;;;;;;;4131309;28;20049;-63
2023/09/24 05:30:15;;;;;;;1.20;1.20;;;;;;;;;;4131297;28;20125;-63
2023/09/24 05:32:17;;;;;;;1.95;1.85;;;;;;;;;;4131271;28;20050;-62
2023/09/24 05:34:18;;;;;;;1.70;1.60;;;;;;;;;;4131479;28;20046;-62
2023/09/24 05:36:22;;;;;;;1.50;1.50;;;;;;;;;;4131233;28;20332;-63
2023/09/24 05:38:26;;;;;;;1.30;1.30;;;;;;;;;;4131241;28;20069;-63
2023/09/24 05:40:28;;;;;;;2.17;2.05;;;;;;;;;;4131163;28;20466;-63
2023/09/24 05:42:30;;;;;;;1.67;1.58;;;;;;;;;;4131183;28;20577;-63
2023/09/24 05:44:34;;;;;;;2.10;1.90;;;;;;;;;;4131349;28;20038;-63
2023/09/24 05:46:36;;;;;;;2.00;1.90;;;;;;;;;;4131306;28;20736;-63
2023/09/24 05:48:37;;;;;;;2.50;2.40;;;;;;;;;;4131234;28;20155;-63
2023/09/24 05:50:39;;;;;;;3.67;3.40;;;;;;;;;;4131225;28;20049;-63
2023/09/24 05:52:41;;;;;;;7.32;2.88;;;;;;;;;;4131232;28;20320;-63
2023/09/24 05:54:42;;;;;;;3.90;3.90;;;;;;;;;;4129131;28;20086;-63
2023/09/24 05:56:44;;;;;;;3.30;3.20;;;;;;;;;;4116906;28;20031;-63
2023/09/24 05:58:46;;;;;;;4.45;4.25;;;;;;;;;;4119458;28;20402;-63
2023/09/24 06:00:48;;;;;;;4.07;4.07;;;;;;;;;;4131093;28;20042;-63
2023/09/24 06:02:50;;;;;;;3.30;3.30;;;;;;;;;;4125511;28;20039;-63
2023/09/24 06:04:54;;;;;;;2.80;2.60;;;;;;;;;;4117342;28;20099;-62
2023/09/24 06:06:56;;;;;;;2.75;2.75;;;;;;;;;;4123234;28;20129;-62
2023/09/24 06:08:58;;;;;;;3.00;2.90;;;;;;;;;;4120338;28;20051;-62
2023/09/24 06:10:59;;;;;;;2.63;2.45;;;;;;;;;;4123908;28;20073;-63
2023/09/24 06:13:01;;;;;;;2.88;2.20;;;;;;;;;;4129512;28;20059;-63
2023/09/24 06:15:03;;;;;;;1.67;1.67;;;;;;;;;;4130832;28;20050;-63
2023/09/24 06:17:05;;;;;;;;;;;;;;;;;;4131682;28;20549;-63
2023/09/24 06:19:07;;;;;;;1.42;1.42;;;;;;;;;;4133731;28;19953;-63
2023/09/24 06:21:13;;;;;;;1.17;1.17;;;;;;;;;;4134129;28;20042;-63
2023/09/24 06:23:14;;;;;;;1.10;1.10;;;;;;;;;;4133839;28;20046;-63
2023/09/24 06:25:16;;;;;;;1.35;1.20;;;;;;;;;;4123408;28;20111;-63
2023/09/24 06:27:19;;;;;;;1.10;1.10;;;;;;;;;;4117887;28;20097;-64
2023/09/24 06:29:21;;;;;;;1.05;1.05;;;;;;;;;;4128508;28;20649;-63
2023/09/24 06:31:22;;;;;;;1.10;1.10;;;;;;;;;;4118363;28;20039;-63
2023/09/24 06:33:24;;;;;;;1.58;1.15;;;;;;;;;;4130295;28;20507;-63
2023/09/24 06:35:26;;;;;;;1.10;1.10;;;;;;;;;;4133570;28;20108;-63
2023/09/24 06:37:28;;;;;;;1.20;1.10;;;;;;;;;;4132653;28;20092;-63
2023/09/24 06:39:31;;;;;;;1.00;1.00;;;;;;;;;;4123246;28;20286;-63
2023/09/24 06:41:32;;;;;;;1.00;1.00;;;;;;;;;;4123777;28;20435;-63
2023/09/24 06:43:34;;;;;;;1.00;1.00;;;;;;;;;;4121539;28;20049;-63
2023/09/24 06:45:36;;;;;;;1.75;1.75;;;;;;;;;;4120792;28;20059;-64
2023/09/24 06:47:37;;;;;;;1.77;1.77;;;;;;;;;;4128764;28;20038;-63
2023/09/24 06:49:39;;;;;;;1.30;1.30;;;;;;;;;;4119772;28;20054;-63
2023/09/24 06:51:41;;;;;;;1.25;1.25;;;;;;;;;;4123664;28;20043;-63
2023/09/24 06:53:42;;;;;;;1.83;1.83;;;;;;;;;;4125405;28;20481;-62
2023/09/24 06:55:44;;;;;;;2.22;2.08;;;;;;;;;;4130525;28;20520;-63
2023/09/24 06:57:46;;;;;;;1.60;1.50;;;;;;;;;;4127044;28;20046;-63
2023/09/24 06:59:47;;;;;;;1.30;1.30;;;;;;;;;;4117183;28;20286;-63
2023/09/24 07:01:50;;;;;;;1.30;1.20;;;;;;;;;;4117146;28;20038;-63
2023/09/24 07:03:51;;;;;;;1.30;1.30;;;;;;;;;;4117193;28;20039;-63
2023/09/24 07:05:54;;;;;;;1.10;1.10;;;;;;;;;;4126134;28;20415;-63
2023/09/24 07:07:57;;;;;;;1.30;1.30;;;;;;;;;;4132952;28;20057;-63
2023/09/24 07:09:59;;;;;;;1.13;1.13;;;;;;;;;;4116507;28;20050;-63
2023/09/24 07:12:01;;;;;;;1.00;1.00;;;;;;;;;;4122388;28;20093;-63
2023/09/24 07:14:06;;;;;;;1.20;1.20;;;;;;;;;;4125127;28;20485;-63
2023/09/24 07:16:08;;;;;;;1.10;1.10;;;;;;;;;;4121625;28;20094;-63
2023/09/24 07:18:10;;;;;;;1.05;1.05;;;;;;;;;;4125506;28;20443;-63
2023/09/24 07:20:13;;;;;;;1.10;1.10;;;;;;;;;;4117195;28;20035;-63
2023/09/24 07:22:14;;;;;;;1.10;1.10;;;;;;;;;;4121180;28;20066;-64
2023/09/24 07:24:16;;;;;;;1.40;1.40;;;;;;;;;;4126304;28;20049;-63
2023/09/24 07:26:18;;;;;;;1.10;1.10;;;;;;;;;;4126387;28;20050;-63
2023/09/24 07:28:24;;;;;;;1.02;1.02;;;;;;;;;;4123198;28;20050;-63
2023/09/24 07:30:26;;;;;;;1.00;1.00;;;;;;;;;;4117052;28;20045;-63
2023/09/24 07:32:29;;;;;;;1.00;1.00;;;;;;;;;;4118372;28;20043;-63
2023/09/24 07:34:31;;;;;;;0.93;0.93;;;;;;;;;;4117165;28;20125;-63
2023/09/24 07:36:32;;;;;;;1.00;1.00;;;;;;;;;;4127986;28;20042;-63
2023/09/24 07:38:52;;;;;;;0.93;0.93;;;;;;;;;;4120292;28;20530;-63
2023/09/24 07:40:54;;;;;;;1.05;1.00;;;;;;;;;;4120614;28;20043;-63
2023/09/24 07:42:56;;;;;;;1.02;1.02;;;;;;;;;;4120811;28;20412;-64
2023/09/24 07:44:57;;;;;;;1.00;1.00;;;;;;;;;;4117533;28;20078;-63
2023/09/24 07:47:00;;;;;;;2.30;1.23;;;;;;;;;;4123342;28;20047;-63
2023/09/24 07:49:05;;;;;;;0.80;0.80;;;;;;;;;;4132508;28;20125;-63
2023/09/24 07:51:07;;;;;;;1.30;1.00;;;;;;;;;;4132404;28;20068;-63
2023/09/24 07:53:09;;;;;;;1.00;1.00;;;;;;;;;;4126373;28;20039;-63
2023/09/24 07:55:11;;;;;;;1.00;1.00;;;;;;;;;;4123605;28;20047;-63
2023/09/24 07:57:14;;;;;;;1.10;1.10;;;;;;;;;;4121224;28;20498;-63
2023/09/24 07:59:15;;;;;;;1.00;1.00;;;;;;;;;;4122483;28;20502;-63
2023/09/24 08:01:21;;;;;;;1.10;1.10;;;;;;;;;;4122036;28;20077;-64
2023/09/24 08:03:23;;;;;;;1.00;1.00;;;;;;;;;;4117287;28;20063;-63
2023/09/24 08:05:25;;;;;;;1.00;1.00;;;;;;;;;;4118324;28;20057;-63
2023/09/24 08:07:29;;;;;;;0.90;0.90;;;;;;;;;;4119921;28;20130;-63
2023/09/24 08:09:30;;;;;;;0.90;0.90;;;;;;;;;;4116366;28;20097;-63
2023/09/24 08:11:32;;;;;;;0.90;0.90;;;;;;;;;;4116154;28;20586;-63
2023/09/24 08:13:34;;;;;;;1.42;1.42;;;;;;;;;;4117465;28;20043;-63
2023/09/24 08:15:36;;;;;;;2.40;0.80;;;;;;;;;;4118614;28;20565;-63
2023/09/24 08:17:39;;;;;;;0.80;0.80;;;;;;;;;;4117558;28;20594;-63
2023/09/24 08:19:41;;;;;;;0.80;0.80;;;;;;;;;;4115989;28;20078;-63
2023/09/24 08:21:42;;;;;;;0.90;0.90;;;;;;;;;;4115933;28;20554;-63
2023/09/24 08:23:44;;;;;;;0.85;0.85;;;;;;;;;;4114793;28;20055;-63
2023/09/24 08:25:48;;;;;;;0.88;0.88;;;;;;;;;;4116118;28;20178;-63
2023/09/24 08:27:50;;;;;;;0.90;0.90;;;;;;;;;;4125565;28;20395;-63
2023/09/24 08:29:54;;;;;;;0.90;0.90;;;;;;;;;;4116784;28;20035;-63
2023/09/24 08:31:56;;;;;;;0.90;0.90;;;;;;;;;;4115818;28;20125;-63
2023/09/24 08:33:58;;;;;;;0.90;0.90;;;;;;;;;;4115595;28;20412;-63
2023/09/24 08:35:59;;;;;;;1.48;0.77;;;;;;;;;;4120174;28;20042;-63
2023/09/24 08:38:01;;;;;;;0.80;0.80;;;;;;;;;;4131852;28;20046;-63
2023/09/24 08:40:03;;;;;;;0.80;0.80;;;;;;;;;;4118528;28;20050;-62
2023/09/24 08:42:07;;;;;;;1.00;1.00;;;;;;;;;;4119684;28;20038;-62
2023/09/24 08:44:11;;;;;;;0.80;0.80;;;;;;;;;;4131710;28;20038;-63
2023/09/24 08:46:13;;;;;;;0.80;0.80;;;;;;;;;;4125724;28;20046;-64
2023/09/24 08:48:15;;;;;;;0.80;0.80;;;;;;;;;;4131419;28;20121;-63
2023/09/24 08:50:17;;;;;;;0.80;0.80;;;;;;;;;;4130756;28;20045;-63
2023/09/24 08:52:18;;;;;;;0.80;0.80;;;;;;;;;;4115931;28;20047;-64
2023/09/24 08:54:20;;;;;;;0.80;0.80;;;;;;;;;;4115756;28;20081;-63
2023/09/24 08:56:23;;;;;;;0.70;0.70;;;;;;;;;;4115331;28;20376;-63
2023/09/24 08:58:25;;;;;;;0.80;0.80;;;;;;;;;;4123203;28;20042;-63
2023/09/24 09:00:27;;;;;;;;;;;;;;;;;;4131815;28;20046;-63
2023/09/24 09:02:30;;;;;;;0.80;0.80;;;;;;;;;;4129477;28;19984;-63
2023/09/24 09:04:33;;;;;;;0.80;0.80;;;;;;;;;;4120521;28;20363;-63
2023/09/24 09:06:36;;;;;;;0.80;0.80;;;;;;;;;;4115435;28;20051;-63
2023/09/24 09:08:48;;;;;;;0.80;0.80;;;;;;;;;;4115683;28;20051;-63
2023/09/24 09:10:50;;;;;;;0.80;0.80;;;;;;;;;;4115663;28;20057;-63
2023/09/24 09:13:01;;;;;;;0.73;0.73;;;;;;;;;;4115115;28;20050;-63
2023/09/24 09:15:14;;;;;;;0.80;0.80;;;;;;;;;;4122480;28;20102;-63
2023/09/24 09:17:16;;;;;;;0.80;0.80;;;;;;;;;;4131241;28;20069;-64
2023/09/24 09:19:18;;;;;;;0.80;0.80;;;;;;;;;;4125056;28;20054;-63
2023/09/24 09:21:29;;;;;;;0.80;0.80;;;;;;;;;;4115385;28;20066;-64
2023/09/24 09:23:34;;;;;;;0.80;0.80;;;;;;;;;;4115633;28;20301;-63
2023/09/24 09:25:50;;;;;;;0.80;0.80;;;;;;;;;;4115287;28;20086;-63
2023/09/24 09:27:52;;;;;;;0.80;0.80;;;;;;;;;;4115283;28;20046;-63
2023/09/24 09:30:08;;;;;;;3.72;0.80;;;;;;;;;;4119533;28;20078;-61
2023/09/24 09:32:09;;;;;;;0.80;0.80;;;;;;;;;;4123905;28;20055;-62
2023/09/24 09:34:11;;;;;;;0.70;0.70;;;;;;;;;;4115214;28;20058;-62
2023/09/24 09:36:20;;;;;;;0.70;0.70;;;;;;;;;;4121448;28;20048;-62
2023/09/24 09:38:22;;;;;;;0.70;0.70;;;;;;;;;;4129905;28;20038;-62
2023/09/24 09:40:24;;;;;;;1.17;0.70;;;;;;;;;;4127479;28;20642;-63
2023/09/24 09:42:30;;;;;;;0.80;0.80;;;;;;;;;;4123200;28;20399;-65
2023/09/24 09:44:32;;;;;;;0.90;0.80;;;;;;;;;;4118597;28;20074;-63
2023/09/24 09:46:36;;;;;;;0.70;0.70;;;;;;;;;;4128130;28;20050;-62
2023/09/24 09:48:41;;;;;;;0.80;0.80;;;;;;;;;;4130871;28;20078;-64
2023/09/24 09:50:44;;;;;;;0.80;0.80;;;;;;;;;;4116026;28;20490;-62
2023/09/24 09:52:48;;;;;;;0.70;0.70;;;;;;;;;;4120250;28;20054;-62
2023/09/24 09:54:51;;;;;;;0.70;0.70;;;;;;;;;;4134061;28;20422;-62
2023/09/24 09:56:53;;;;;;;1.00;0.77;;;;;;;;;;4133294;28;20038;-62
2023/09/24 09:58:55;;;;;;;0.70;0.70;;;;;;;;;;4134148;28;20050;-63
2023/09/24 10:00:59;;;;;;;1.33;0.80;;;;;;;;;;4119724;28;20046;-62
2023/09/24 10:03:01;;;;;;;0.70;0.70;;;;;;;;;;4121026;28;20075;-62
2023/09/24 10:05:03;;;;;;;;;;;;;;;;;;4118780;28;20166;-62
2023/09/24 10:07:05;;;;;;;1.52;0.70;;;;;;;;;;4123722;28;19922;-62
2023/09/24 10:09:25;;;;;;;0.70;0.70;;;;;;;;;;4119290;28;20553;-62
2023/09/24 10:11:33;;;;;;;0.80;0.80;;;;;;;;;;4119534;28;20039;-63
2023/09/24 10:13:48;;;;;;;0.77;0.77;;;;;;;;;;4124301;28;20467;-62
2023/09/24 10:15:49;;;;;;;0.80;0.80;;;;;;;;;;4123168;28;20042;-62
2023/09/24 10:18:15;;;;;;;0.80;0.80;;;;;;;;;;4125114;28;20042;-63
2023/09/24 10:20:18;;;;;;;0.70;0.70;;;;;;;;;;4125874;28;20063;-62
2023/09/24 10:22:24;;;;;;;0.70;0.70;;;;;;;;;;4120308;28;20555;-63
2023/09/24 10:24:28;;;;;;;0.70;0.70;;;;;;;;;;4120482;28;20061;-62
2023/09/24 10:26:49;;;;;;;0.73;0.73;;;;;;;;;;4122261;28;20035;-63
2023/09/24 10:28:51;;;;;;;0.70;0.70;;;;;;;;;;4122608;28;20039;-62
2023/09/24 10:31:04;;;;;;;0.70;0.70;;;;;;;;;;4131149;28;20483;-63
2023/09/24 10:33:07;;;;;;;0.70;0.70;;;;;;;;;;4117478;28;20550;-63
2023/09/24 10:35:09;;;;;;;0.73;0.73;;;;;;;;;;4116650;28;20466;-63
2023/09/24 10:37:11;;;;;;;0.70;0.70;;;;;;;;;;4132657;28;20077;-63
2023/09/24 10:39:15;;;;;;;0.80;0.80;;;;;;;;;;4119898;28;20074;-63
2023/09/24 10:41:17;;;;;;;0.70;0.70;;;;;;;;;;4129665;28;20054;-62
2023/09/24 10:43:19;;;;;;;0.73;0.73;;;;;;;;;;4117621;28;20423;-63
2023/09/24 10:45:21;;;;;;;1.90;0.85;;;;;;;;;;4119310;28;20411;-62
2023/09/24 10:47:34;;;;;;;0.70;0.70;;;;;;;;;;4124528;28;20092;-64
2023/09/24 10:49:35;;;;;;;0.70;0.70;;;;;;;;;;4121262;28;20039;-61
2023/09/24 10:51:37;;;;;;;0.85;0.85;;;;;;;;;;4125892;28;20539;-60
2023/09/24 10:53:38;;;;;;;1.27;0.80;;;;;;;;;;4124309;28;20046;-61
2023/09/24 10:55:41;;;;;;;0.98;0.70;;;;;;;;;;4125871;28;20081;-61
2023/09/24 10:57:45;;;;;;;0.80;0.80;;;;;;;;;;4125799;28;20034;-60
2023/09/24 10:59:46;;;;;;;0.80;0.80;;;;;;;;;;4125496;28;20389;-61
2023/09/24 11:01:48;;;;;;;0.70;0.70;;;;;;;;;;4121998;28;20050;-61
2023/09/24 11:03:50;;;;;;;0.70;0.70;;;;;;;;;;4119056;28;20497;-61
2023/09/24 11:05:53;;;;;;;0.70;0.70;;;;;;;;;;4118288;28;20078;-61
2023/09/24 11:07:55;;;;;;;1.17;0.80;;;;;;;;;;4120367;28;20046;-61
2023/09/24 11:09:57;;;;;;;0.70;0.70;;;;;;;;;;4117175;28;20507;-60
2023/09/24 11:11:58;;;;;;;0.70;0.70;;;;;;;;;;4121046;28;20528;-61
2023/09/24 11:14:12;;;;;;;0.70;0.70;;;;;;;;;;4114589;28;20046;-60
2023/09/24 11:16:13;;;;;;;0.70;0.70;;;;;;;;;;4117441;28;20042;-61
2023/09/24 11:18:15;;;;;;;0.90;0.90;;;;;;;;;;4128598;28;20034;-61
2023/09/24 11:20:20;;;;;;;0.82;0.80;;;;;;;;;;4120204;28;20101;-60
2023/09/24 11:22:23;;;;;;;0.70;0.70;;;;;;;;;;4130598;28;20050;-61
2023/09/24 11:24:25;;;;;;;0.90;0.80;;;;;;;;;;4128567;28;20085;-61
2023/09/24 11:26:28;;;;;;;0.70;0.70;;;;;;;;;;4129968;28;20049;-60
2023/09/24 11:28:31;;;;;;;1.88;1.25;;;;;;;;;;4115320;28;20046;-61
2023/09/24 11:30:41;;;;;;;0.70;0.70;;;;;;;;;;4117928;28;20085;-61
2023/09/24 11:32:44;;;;;;;0.80;0.80;;;;;;;;;;4116385;28;20055;-60
2023/09/24 11:34:46;;;;;;;0.80;0.80;;;;;;;;;;4116673;28;20042;-61
2023/09/24 11:36:57;;;;;;;0.70;0.70;;;;;;;;;;4126812;28;20057;-61
2023/09/24 11:39:00;;;;;;;0.90;0.70;;;;;;;;;;4126864;28;20034;-61
2023/09/24 11:41:06;;;;;;;0.70;0.70;;;;;;;;;;4116332;28;20089;-61
2023/09/24 11:43:11;;;;;;;0.70;0.70;;;;;;;;;;4125473;28;20045;-60
2023/09/24 11:45:12;;;;;;;0.80;0.80;;;;;;;;;;4124110;28;20077;-61
2023/09/24 11:47:14;;;;;;;0.80;0.80;;;;;;;;;;4122143;28;20117;-61
2023/09/24 11:49:16;;;;;;;0.77;0.77;;;;;;;;;;4120031;28;20038;-61
2023/09/24 11:51:20;;;;;;;0.63;0.63;;;;;;;;;;4124513;28;20144;-61
2023/09/24 11:53:23;;;;;;;0.70;0.70;;;;;;;;;;4120271;28;20038;-62
2023/09/24 11:55:25;;;;;;;0.70;0.70;;;;;;;;;;4127242;28;20050;-60
2023/09/24 11:57:27;;;;;;;0.80;0.80;;;;;;;;;;4116203;28;20090;-61
2023/09/24 11:59:31;;;;;;;0.77;0.77;;;;;;;;;;4125473;28;20399;-61
2023/09/24 12:01:33;;;;;;;1.38;0.80;;;;;;;;;;4126740;28;20061;-61
2023/09/24 12:03:35;;;;;;;0.80;0.80;;;;;;;;;;4131591;28;20038;-62
2023/09/24 12:05:37;;;;;;;0.85;0.80;;;;;;;;;;4131632;28;20075;-60
2023/09/24 12:07:39;;;;;;;0.80;0.80;;;;;;;;;;4128298;28;20038;-61
2023/09/24 12:09:41;;;;;;;0.80;0.80;;;;;;;;;;4118874;28;20054;-61
2023/09/24 12:11:42;;;;;;;0.80;0.80;;;;;;;;;;4119898;28;20047;-60
2023/09/24 12:13:44;;;;;;;0.80;0.80;;;;;;;;;;4117968;28;20053;-60
2023/09/24 12:15:46;;;;;;;0.90;0.90;;;;;;;;;;4115333;28;20057;-61
2023/09/24 12:17:48;;;;;;;0.85;0.85;;;;;;;;;;4131872;28;20038;-61